sensor_id;sensor_type;location;lat;lon;timestamp;temperature;humidity
6865;DHT22;3471;49.678;8.388;2023-02-04T00:01:46;10.20;99.90
6865;DHT22;3471;49.678;8.388;2023-02-04T00:04:12;10.20;99.90
6865;DHT22;3471;49.678;8.388;2023-02-04T00:06:38;10.20;99.90
6865;DHT22;3471;49.678;8.388;2023-02-04T00:09:03;10.20;99.90
6865;DHT22;3471;49.678;8.388;2023-02-04T00:11:29;10.20;99.90
6865;DHT22;3471;49.678;8.388;2023-02-04T00:13:55;10.20;99.90
6865;DHT22;3471;49.678;8.388;2023-02-04T00:16:20;10.20;99.90
6865;DHT22;3471;49.678;8.388;2023-02-04T00:18:46;10.20;99.90
6865;DHT22;3471;49.678;8.388;2023-02-04T00:21:11;10.20;99.90
6865;DHT22;3471;49.678;8.388;2023-02-04T00:23:37;10.20;99.90
6865;DHT22;3471;49.678;8.388;2023-02-04T00:26:03;10.10;99.90
6865;DHT22;3471;49.678;8.388;2023-02-04T00:28:28;10.10;99.90
6865;DHT22;3471;49.678;8.388;2023-02-04T00:30:54;10.10;99.90
6865;DHT22;3471;49.678;8.388;2023-02-04T00:33:20;10.10;99.90
6865;DHT22;3471;49.678;8.388;2023-02-04T00:35:45;10.10;99.90
6865;DHT22;3471;49.678;8.388;2023-02-04T00:38:11;10.10;99.90
6865;DHT22;3471;49.678;8.388;2023-02-04T00:40:36;10.10;99.90
6865;DHT22;3471;49.678;8.388;2023-02-04T00:43:02;10.10;99.90
6865;DHT22;3471;49.678;8.388;2023-02-04T00:45:28;10.10;99.90
6865;DHT22;3471;49.678;8.388;2023-02-04T00:47:53;10.10;99.90
6865;DHT22;3471;49.678;8.388;2023-02-04T00:50:19;10.10;99.90
6865;DHT22;3471;49.678;8.388;2023-02-04T00:52:44;10.10;99.90
6865;DHT22;3471;49.678;8.388;2023-02-04T00:55:10;10.10;99.90
6865;DHT22;3471;49.678;8.388;2023-02-04T00:57:37;10.10;99.90
6865;DHT22;3471;49.678;8.388;2023-02-04T01:00:04;10.10;99.90
6865;DHT22;3471;49.678;8.388;2023-02-04T01:02:29;10.10;99.90
6865;DHT22;3471;49.678;8.388;2023-02-04T01:04:55;10.10;99.90
6865;DHT22;3471;49.678;8.388;2023-02-04T01:07:21;10.00;99.90
6865;DHT22;3471;49.678;8.388;2023-02-04T01:09:46;10.00;99.90
6865;DHT22;3471;49.678;8.388;2023-02-04T01:12:12;10.00;99.90
6865;DHT22;3471;49.678;8.388;2023-02-04T01:14:37;10.00;99.90
6865;DHT22;3471;49.678;8.388;2023-02-04T01:17:03;10.00;99.90
6865;DHT22;3471;49.678;8.388;2023-02-04T01:19:28;9.90;99.90
6865;DHT22;3471;49.678;8.388;2023-02-04T01:21:54;10.00;99.90
6865;DHT22;3471;49.678;8.388;2023-02-04T01:24:20;9.90;99.90
6865;DHT22;3471;49.678;8.388;2023-02-04T01:26:45;9.90;99.90
6865;DHT22;3471;49.678;8.388;2023-02-04T01:29:11;9.90;99.90
6865;DHT22;3471;49.678;8.388;2023-02-04T01:31:36;9.90;99.90
6865;DHT22;3471;49.678;8.388;2023-02-04T01:34:02;9.90;99.90
6865;DHT22;3471;49.678;8.388;2023-02-04T01:36:28;10.00;99.90
6865;DHT22;3471;49.678;8.388;2023-02-04T01:38:53;9.90;99.90
6865;DHT22;3471;49.678;8.388;2023-02-04T01:41:19;10.00;99.90
6865;DHT22;3471;49.678;8.388;2023-02-04T01:43:46;10.00;99.90
6865;DHT22;3471;49.678;8.388;2023-02-04T01:46:12;10.00;99.90
6865;DHT22;3471;49.678;8.388;2023-02-04T01:48:38;10.00;99.90
6865;DHT22;3471;49.678;8.388;2023-02-04T01:51:06;10.00;99.90
6865;DHT22;3471;49.678;8.388;2023-02-04T01:53:34;9.90;99.90
6865;DHT22;3471;49.678;8.388;2023-02-04T01:56:01;9.90;99.90
6865;DHT22;3471;49.678;8.388;2023-02-04T01:58:28;9.90;99.90
6865;DHT22;3471;49.678;8.388;2023-02-04T02:00:54;9.90;99.90
6865;DHT22;3471;49.678;8.388;2023-02-04T02:03:20;9.90;99.90
6865;DHT22;3471;49.678;8.388;2023-02-04T02:05:51;9.90;99.90
6865;DHT22;3471;49.678;8.388;2023-02-04T02:08:18;9.90;99.90
6865;DHT22;3471;49.678;8.388;2023-02-04T02:10:46;9.90;99.90
6865;DHT22;3471;49.678;8.388;2023-02-04T02:13:14;9.90;99.90
6865;DHT22;3471;49.678;8.388;2023-02-04T02:15:40;9.90;99.90
6865;DHT22;3471;49.678;8.388;2023-02-04T02:18:07;9.90;99.90
6865;DHT22;3471;49.678;8.388;2023-02-04T02:20:33;9.80;99.90
6865;DHT22;3471;49.678;8.388;2023-02-04T02:25:46;9.80;99.90
6865;DHT22;3471;49.678;8.388;2023-02-04T02:28:15;9.80;99.90
6865;DHT22;3471;49.678;8.388;2023-02-04T02:30:42;9.80;99.90
6865;DHT22;3471;49.678;8.388;2023-02-04T02:33:12;9.80;99.90
6865;DHT22;3471;49.678;8.388;2023-02-04T02:35:42;9.80;99.90
6865;DHT22;3471;49.678;8.388;2023-02-04T02:38:11;9.80;99.90
6865;DHT22;3471;49.678;8.388;2023-02-04T02:40:37;9.80;99.90
6865;DHT22;3471;49.678;8.388;2023-02-04T02:43:04;9.80;99.90
6865;DHT22;3471;49.678;8.388;2023-02-04T02:45:30;9.80;99.90
6865;DHT22;3471;49.678;8.388;2023-02-04T02:47:59;9.80;99.90
6865;DHT22;3471;49.678;8.388;2023-02-04T02:50:27;9.80;99.90
6865;DHT22;3471;49.678;8.388;2023-02-04T02:52:54;9.70;99.90
6865;DHT22;3471;49.678;8.388;2023-02-04T02:55:23;9.70;99.90
6865;DHT22;3471;49.678;8.388;2023-02-04T02:57:50;9.70;99.90
6865;DHT22;3471;49.678;8.388;2023-02-04T03:00:24;9.70;99.90
6865;DHT22;3471;49.678;8.388;2023-02-04T03:05:19;9.70;99.90
6865;DHT22;3471;49.678;8.388;2023-02-04T03:07:45;9.60;99.90
6865;DHT22;3471;49.678;8.388;2023-02-04T03:10:10;9.60;99.90
6865;DHT22;3471;49.678;8.388;2023-02-04T03:12:36;9.60;99.90
6865;DHT22;3471;49.678;8.388;2023-02-04T03:15:03;9.50;99.90
6865;DHT22;3471;49.678;8.388;2023-02-04T03:17:30;9.50;99.90
6865;DHT22;3471;49.678;8.388;2023-02-04T03:19:56;9.50;99.90
6865;DHT22;3471;49.678;8.388;2023-02-04T03:22:22;9.40;99.90
6865;DHT22;3471;49.678;8.388;2023-02-04T03:24:47;9.40;99.90
6865;DHT22;3471;49.678;8.388;2023-02-04T03:27:13;9.40;99.90
6865;DHT22;3471;49.678;8.388;2023-02-04T03:29:43;9.30;99.90
6865;DHT22;3471;49.678;8.388;2023-02-04T03:32:09;9.30;99.90
6865;DHT22;3471;49.678;8.388;2023-02-04T03:34:34;9.30;99.90
6865;DHT22;3471;49.678;8.388;2023-02-04T03:37:00;9.20;99.90
6865;DHT22;3471;49.678;8.388;2023-02-04T03:39:25;9.20;99.90
6865;DHT22;3471;49.678;8.388;2023-02-04T03:41:51;9.10;99.90
6865;DHT22;3471;49.678;8.388;2023-02-04T03:44:16;9.10;99.90
6865;DHT22;3471;49.678;8.388;2023-02-04T03:46:43;9.10;99.90
6865;DHT22;3471;49.678;8.388;2023-02-04T03:49:08;9.10;99.90
6865;DHT22;3471;49.678;8.388;2023-02-04T03:51:34;9.00;99.90
6865;DHT22;3471;49.678;8.388;2023-02-04T03:53:59;9.00;99.90
6865;DHT22;3471;49.678;8.388;2023-02-04T03:56:25;9.00;99.90
6865;DHT22;3471;49.678;8.388;2023-02-04T03:58:50;8.90;99.90
6865;DHT22;3471;49.678;8.388;2023-02-04T04:01:16;9.00;99.90
6865;DHT22;3471;49.678;8.388;2023-02-04T04:03:41;9.00;99.90
6865;DHT22;3471;49.678;8.388;2023-02-04T04:06:07;9.00;99.90
6865;DHT22;3471;49.678;8.388;2023-02-04T04:08:34;9.00;99.90
6865;DHT22;3471;49.678;8.388;2023-02-04T04:11:00;9.00;99.90
6865;DHT22;3471;49.678;8.388;2023-02-04T04:13:25;9.00;99.90
6865;DHT22;3471;49.678;8.388;2023-02-04T04:15:51;9.00;99.90
6865;DHT22;3471;49.678;8.388;2023-02-04T04:18:16;8.90;99.90
6865;DHT22;3471;49.678;8.388;2023-02-04T04:20:42;8.90;99.90
6865;DHT22;3471;49.678;8.388;2023-02-04T04:23:08;8.90;99.90
6865;DHT22;3471;49.678;8.388;2023-02-04T04:25:33;8.90;99.90
6865;DHT22;3471;49.678;8.388;2023-02-04T04:27:59;8.90;99.90
6865;DHT22;3471;49.678;8.388;2023-02-04T04:30:24;8.80;99.90
6865;DHT22;3471;49.678;8.388;2023-02-04T04:32:50;8.90;99.90
6865;DHT22;3471;49.678;8.388;2023-02-04T04:35:15;8.80;99.90
6865;DHT22;3471;49.678;8.388;2023-02-04T04:37:41;8.80;99.90
6865;DHT22;3471;49.678;8.388;2023-02-04T04:40:10;8.80;99.90
6865;DHT22;3471;49.678;8.388;2023-02-04T04:42:35;8.80;99.90
6865;DHT22;3471;49.678;8.388;2023-02-04T04:45:02;8.80;99.90
6865;DHT22;3471;49.678;8.388;2023-02-04T04:47:28;8.80;99.90
6865;DHT22;3471;49.678;8.388;2023-02-04T04:49:53;8.80;99.90
6865;DHT22;3471;49.678;8.388;2023-02-04T04:52:19;8.80;99.90
6865;DHT22;3471;49.678;8.388;2023-02-04T04:54:44;8.80;99.90
6865;DHT22;3471;49.678;8.388;2023-02-04T04:57:10;8.80;99.90
6865;DHT22;3471;49.678;8.388;2023-02-04T04:59:36;8.90;99.90
6865;DHT22;3471;49.678;8.388;2023-02-04T05:02:01;8.90;99.90
6865;DHT22;3471;49.678;8.388;2023-02-04T05:04:27;8.90;99.90
6865;DHT22;3471;49.678;8.388;2023-02-04T05:06:52;8.90;99.90
6865;DHT22;3471;49.678;8.388;2023-02-04T05:09:18;8.90;99.90
6865;DHT22;3471;49.678;8.388;2023-02-04T05:11:43;8.90;99.90
6865;DHT22;3471;49.678;8.388;2023-02-04T05:14:09;8.90;99.90
6865;DHT22;3471;49.678;8.388;2023-02-04T05:16:34;8.80;99.90
6865;DHT22;3471;49.678;8.388;2023-02-04T05:19:00;8.80;99.90
6865;DHT22;3471;49.678;8.388;2023-02-04T05:21:25;8.80;99.90
6865;DHT22;3471;49.678;8.388;2023-02-04T05:23:51;8.80;99.90
6865;DHT22;3471;49.678;8.388;2023-02-04T05:26:16;8.80;99.90
6865;DHT22;3471;49.678;8.388;2023-02-04T05:28:42;8.80;99.90
6865;DHT22;3471;49.678;8.388;2023-02-04T05:31:08;8.80;99.90
6865;DHT22;3471;49.678;8.388;2023-02-04T05:33:33;8.80;99.90
6865;DHT22;3471;49.678;8.388;2023-02-04T05:35:59;8.80;99.90
6865;DHT22;3471;49.678;8.388;2023-02-04T05:38:24;8.80;99.90
6865;DHT22;3471;49.678;8.388;2023-02-04T05:40:50;8.80;99.90
6865;DHT22;3471;49.678;8.388;2023-02-04T05:43:15;8.80;99.90
6865;DHT22;3471;49.678;8.388;2023-02-04T05:45:41;8.80;99.90
6865;DHT22;3471;49.678;8.388;2023-02-04T05:48:06;8.70;99.90
6865;DHT22;3471;49.678;8.388;2023-02-04T05:50:32;8.70;99.90
6865;DHT22;3471;49.678;8.388;2023-02-04T05:52:58;8.70;99.90
6865;DHT22;3471;49.678;8.388;2023-02-04T05:55:23;8.70;99.90
6865;DHT22;3471;49.678;8.388;2023-02-04T05:57:49;8.60;99.90
6865;DHT22;3471;49.678;8.388;2023-02-04T06:00:14;8.60;99.90
6865;DHT22;3471;49.678;8.388;2023-02-04T06:02:40;8.60;99.90
6865;DHT22;3471;49.678;8.388;2023-02-04T06:05:05;8.50;99.90
6865;DHT22;3471;49.678;8.388;2023-02-04T06:07:31;8.50;99.90
6865;DHT22;3471;49.678;8.388;2023-02-04T06:09:57;8.40;99.90
6865;DHT22;3471;49.678;8.388;2023-02-04T06:12:22;8.40;99.90
6865;DHT22;3471;49.678;8.388;2023-02-04T06:14:48;8.30;99.90
6865;DHT22;3471;49.678;8.388;2023-02-04T06:17:13;8.30;99.90
6865;DHT22;3471;49.678;8.388;2023-02-04T06:19:39;8.20;99.90
6865;DHT22;3471;49.678;8.388;2023-02-04T06:22:04;8.20;99.90
6865;DHT22;3471;49.678;8.388;2023-02-04T06:24:30;8.20;99.90
6865;DHT22;3471;49.678;8.388;2023-02-04T06:26:55;8.20;99.90
6865;DHT22;3471;49.678;8.388;2023-02-04T06:29:21;8.20;99.90
6865;DHT22;3471;49.678;8.388;2023-02-04T06:31:47;8.10;99.90
6865;DHT22;3471;49.678;8.388;2023-02-04T06:34:13;8.10;99.90
6865;DHT22;3471;49.678;8.388;2023-02-04T06:36:39;8.10;99.90
6865;DHT22;3471;49.678;8.388;2023-02-04T06:39:05;8.10;99.90
6865;DHT22;3471;49.678;8.388;2023-02-04T06:41:30;8.10;99.90
6865;DHT22;3471;49.678;8.388;2023-02-04T06:43:56;8.10;99.90
6865;DHT22;3471;49.678;8.388;2023-02-04T06:46:21;8.10;99.90
6865;DHT22;3471;49.678;8.388;2023-02-04T06:48:47;8.00;99.90
6865;DHT22;3471;49.678;8.388;2023-02-04T06:51:12;8.00;99.90
6865;DHT22;3471;49.678;8.388;2023-02-04T06:53:38;8.00;99.90
6865;DHT22;3471;49.678;8.388;2023-02-04T06:56:05;8.00;99.90
6865;DHT22;3471;49.678;8.388;2023-02-04T06:58:30;8.10;99.90
6865;DHT22;3471;49.678;8.388;2023-02-04T07:00:56;8.10;99.90
6865;DHT22;3471;49.678;8.388;2023-02-04T07:03:21;8.10;99.90
6865;DHT22;3471;49.678;8.388;2023-02-04T07:05:47;8.10;99.90
6865;DHT22;3471;49.678;8.388;2023-02-04T07:08:12;8.10;99.90
6865;DHT22;3471;49.678;8.388;2023-02-04T07:10:38;8.10;99.90
6865;DHT22;3471;49.678;8.388;2023-02-04T07:13:04;8.10;99.90
6865;DHT22;3471;49.678;8.388;2023-02-04T07:15:29;8.10;99.90
6865;DHT22;3471;49.678;8.388;2023-02-04T07:17:55;8.10;99.90
6865;DHT22;3471;49.678;8.388;2023-02-04T07:20:22;8.00;99.90
6865;DHT22;3471;49.678;8.388;2023-02-04T07:22:47;8.00;99.90
6865;DHT22;3471;49.678;8.388;2023-02-04T07:25:13;8.00;99.90
6865;DHT22;3471;49.678;8.388;2023-02-04T07:27:42;8.10;99.90
6865;DHT22;3471;49.678;8.388;2023-02-04T07:30:08;8.10;99.90
6865;DHT22;3471;49.678;8.388;2023-02-04T07:32:34;8.10;99.90
6865;DHT22;3471;49.678;8.388;2023-02-04T07:35:00;8.10;99.90
6865;DHT22;3471;49.678;8.388;2023-02-04T07:37:26;8.20;99.90
6865;DHT22;3471;49.678;8.388;2023-02-04T07:39:51;8.20;99.90
6865;DHT22;3471;49.678;8.388;2023-02-04T07:42:17;8.20;99.90
6865;DHT22;3471;49.678;8.388;2023-02-04T07:44:42;8.30;99.90
6865;DHT22;3471;49.678;8.388;2023-02-04T07:47:08;8.30;99.90
6865;DHT22;3471;49.678;8.388;2023-02-04T07:49:33;8.30;99.90
6865;DHT22;3471;49.678;8.388;2023-02-04T07:51:59;8.30;99.90
6865;DHT22;3471;49.678;8.388;2023-02-04T07:54:24;8.40;99.90
6865;DHT22;3471;49.678;8.388;2023-02-04T07:56:50;8.40;99.90
6865;DHT22;3471;49.678;8.388;2023-02-04T07:59:15;8.40;99.90
6865;DHT22;3471;49.678;8.388;2023-02-04T08:01:41;8.40;99.90
6865;DHT22;3471;49.678;8.388;2023-02-04T08:04:06;8.40;99.90
6865;DHT22;3471;49.678;8.388;2023-02-04T08:06:32;8.40;99.90
6865;DHT22;3471;49.678;8.388;2023-02-04T08:08:58;8.50;99.90
6865;DHT22;3471;49.678;8.388;2023-02-04T08:11:23;8.50;99.90
6865;DHT22;3471;49.678;8.388;2023-02-04T08:13:49;8.60;99.90
6865;DHT22;3471;49.678;8.388;2023-02-04T08:16:14;8.60;99.90
6865;DHT22;3471;49.678;8.388;2023-02-04T08:18:40;8.70;99.90
6865;DHT22;3471;49.678;8.388;2023-02-04T08:21:05;8.80;99.90
6865;DHT22;3471;49.678;8.388;2023-02-04T08:23:31;8.90;99.90
6865;DHT22;3471;49.678;8.388;2023-02-04T08:25:58;9.00;99.90
6865;DHT22;3471;49.678;8.388;2023-02-04T08:28:24;9.00;99.90
6865;DHT22;3471;49.678;8.388;2023-02-04T08:30:50;9.10;99.90
6865;DHT22;3471;49.678;8.388;2023-02-04T08:33:15;9.10;99.90
6865;DHT22;3471;49.678;8.388;2023-02-04T08:35:41;9.20;99.90
6865;DHT22;3471;49.678;8.388;2023-02-04T08:38:07;9.20;99.90
6865;DHT22;3471;49.678;8.388;2023-02-04T08:40:32;9.30;99.90
6865;DHT22;3471;49.678;8.388;2023-02-04T08:42:58;9.30;99.90
6865;DHT22;3471;49.678;8.388;2023-02-04T08:45:23;9.30;99.90
6865;DHT22;3471;49.678;8.388;2023-02-04T08:47:49;9.30;99.90
6865;DHT22;3471;49.678;8.388;2023-02-04T08:50:15;9.40;99.90
6865;DHT22;3471;49.678;8.388;2023-02-04T08:52:40;9.50;99.90
6865;DHT22;3471;49.678;8.388;2023-02-04T08:55:06;9.50;99.90
6865;DHT22;3471;49.678;8.388;2023-02-04T08:57:32;9.60;99.90
6865;DHT22;3471;49.678;8.388;2023-02-04T08:59:59;9.70;99.90
6865;DHT22;3471;49.678;8.388;2023-02-04T09:02:25;9.70;99.90
6865;DHT22;3471;49.678;8.388;2023-02-04T09:04:50;9.80;99.90
6865;DHT22;3471;49.678;8.388;2023-02-04T09:07:16;9.80;99.90
6865;DHT22;3471;49.678;8.388;2023-02-04T09:09:42;9.90;99.90
6865;DHT22;3471;49.678;8.388;2023-02-04T09:12:07;9.90;99.90
6865;DHT22;3471;49.678;8.388;2023-02-04T09:14:33;10.00;99.90
6865;DHT22;3471;49.678;8.388;2023-02-04T09:16:58;10.10;99.90
6865;DHT22;3471;49.678;8.388;2023-02-04T09:19:24;10.10;99.90
6865;DHT22;3471;49.678;8.388;2023-02-04T09:21:53;10.10;99.90
6865;DHT22;3471;49.678;8.388;2023-02-04T09:24:19;10.20;99.90
6865;DHT22;3471;49.678;8.388;2023-02-04T09:26:48;10.30;99.90
6865;DHT22;3471;49.678;8.388;2023-02-04T09:29:14;10.30;99.90
6865;DHT22;3471;49.678;8.388;2023-02-04T09:31:39;10.30;99.90
6865;DHT22;3471;49.678;8.388;2023-02-04T09:34:05;10.40;99.90
6865;DHT22;3471;49.678;8.388;2023-02-04T09:36:30;10.40;99.90
6865;DHT22;3471;49.678;8.388;2023-02-04T09:39:05;10.40;99.90
6865;DHT22;3471;49.678;8.388;2023-02-04T09:41:32;10.40;99.90
6865;DHT22;3471;49.678;8.388;2023-02-04T09:43:58;10.50;99.90
6865;DHT22;3471;49.678;8.388;2023-02-04T09:46:25;10.50;99.90
6865;DHT22;3471;49.678;8.388;2023-02-04T09:48:57;10.50;99.90
6865;DHT22;3471;49.678;8.388;2023-02-04T09:51:27;10.50;99.90
6865;DHT22;3471;49.678;8.388;2023-02-04T09:54:11;10.60;99.90
6865;DHT22;3471;49.678;8.388;2023-02-04T09:56:36;10.70;99.90
6865;DHT22;3471;49.678;8.388;2023-02-04T09:59:11;10.90;99.90
6865;DHT22;3471;49.678;8.388;2023-02-04T10:01:38;11.10;99.90
6865;DHT22;3471;49.678;8.388;2023-02-04T10:04:04;11.30;99.90
6865;DHT22;3471;49.678;8.388;2023-02-04T10:06:30;11.50;99.90
6865;DHT22;3471;49.678;8.388;2023-02-04T10:08:56;11.70;99.90
6865;DHT22;3471;49.678;8.388;2023-02-04T10:11:23;11.90;99.90
6865;DHT22;3471;49.678;8.388;2023-02-04T10:13:52;12.00;99.90
6865;DHT22;3471;49.678;8.388;2023-02-04T10:16:31;12.10;99.90
6865;DHT22;3471;49.678;8.388;2023-02-04T10:19:03;12.10;99.90
6865;DHT22;3471;49.678;8.388;2023-02-04T10:21:30;12.20;99.90
6865;DHT22;3471;49.678;8.388;2023-02-04T10:23:58;12.20;99.90
6865;DHT22;3471;49.678;8.388;2023-02-04T10:26:27;12.30;99.90
6865;DHT22;3471;49.678;8.388;2023-02-04T10:29:17;12.40;99.90
6865;DHT22;3471;49.678;8.388;2023-02-04T10:31:46;12.70;99.90
6865;DHT22;3471;49.678;8.388;2023-02-04T10:34:38;13.00;99.90
6865;DHT22;3471;49.678;8.388;2023-02-04T10:37:19;13.20;99.90
6865;DHT22;3471;49.678;8.388;2023-02-04T10:39:45;13.50;99.90
6865;DHT22;3471;49.678;8.388;2023-02-04T10:42:28;13.60;99.90
6865;DHT22;3471;49.678;8.388;2023-02-04T10:44:54;13.60;99.90
6865;DHT22;3471;49.678;8.388;2023-02-04T10:47:22;13.50;99.90
6865;DHT22;3471;49.678;8.388;2023-02-04T10:52:35;13.20;99.90
6865;DHT22;3471;49.678;8.388;2023-02-04T10:55:04;13.00;99.90
6865;DHT22;3471;49.678;8.388;2023-02-04T10:57:32;12.70;99.90
6865;DHT22;3471;49.678;8.388;2023-02-04T11:00:01;12.50;99.90
6865;DHT22;3471;49.678;8.388;2023-02-04T11:02:48;12.30;99.90
6865;DHT22;3471;49.678;8.388;2023-02-04T11:05:20;12.00;99.90
6865;DHT22;3471;49.678;8.388;2023-02-04T11:07:47;11.80;99.90
6865;DHT22;3471;49.678;8.388;2023-02-04T11:10:22;11.60;99.90
6865;DHT22;3471;49.678;8.388;2023-02-04T11:15:42;11.30;99.90
6865;DHT22;3471;49.678;8.388;2023-02-04T11:18:13;11.20;99.90
6865;DHT22;3471;49.678;8.388;2023-02-04T11:20:51;11.10;99.90
6865;DHT22;3471;49.678;8.388;2023-02-04T11:33:44;11.00;99.90
6865;DHT22;3471;49.678;8.388;2023-02-04T11:36:11;11.10;99.90
6865;DHT22;3471;49.678;8.388;2023-02-04T11:38:42;11.30;99.90
6865;DHT22;3471;49.678;8.388;2023-02-04T11:41:35;11.60;99.90
6865;DHT22;3471;49.678;8.388;2023-02-04T11:44:00;11.90;99.90
6865;DHT22;3471;49.678;8.388;2023-02-04T11:46:27;12.40;99.90
6865;DHT22;3471;49.678;8.388;2023-02-04T11:48:57;13.00;99.90
6865;DHT22;3471;49.678;8.388;2023-02-04T11:51:29;13.90;99.90
6865;DHT22;3471;49.678;8.388;2023-02-04T11:53:55;14.60;99.90
6865;DHT22;3471;49.678;8.388;2023-02-04T11:56:22;14.90;99.90
6865;DHT22;3471;49.678;8.388;2023-02-04T11:58:49;15.00;99.90
6865;DHT22;3471;49.678;8.388;2023-02-04T12:01:22;15.10;99.90
6865;DHT22;3471;49.678;8.388;2023-02-04T12:03:57;15.30;99.90
6865;DHT22;3471;49.678;8.388;2023-02-04T12:06:26;15.30;99.90
6865;DHT22;3471;49.678;8.388;2023-02-04T12:09:04;15.30;99.90
6865;DHT22;3471;49.678;8.388;2023-02-04T12:11:30;15.40;99.90
6865;DHT22;3471;49.678;8.388;2023-02-04T12:13:58;16.00;99.90
6865;DHT22;3471;49.678;8.388;2023-02-04T12:16:24;16.70;99.90
6865;DHT22;3471;49.678;8.388;2023-02-04T12:18:50;17.30;99.90
6865;DHT22;3471;49.678;8.388;2023-02-04T12:21:16;18.10;99.90
6865;DHT22;3471;49.678;8.388;2023-02-04T12:23:45;19.20;99.90
6865;DHT22;3471;49.678;8.388;2023-02-04T12:26:11;20.10;99.90
6865;DHT22;3471;49.678;8.388;2023-02-04T12:28:37;20.50;99.90
6865;DHT22;3471;49.678;8.388;2023-02-04T12:31:02;20.50;99.90
6865;DHT22;3471;49.678;8.388;2023-02-04T12:33:28;20.10;98.60
6865;DHT22;3471;49.678;8.388;2023-02-04T12:35:54;19.50;99.10
6865;DHT22;3471;49.678;8.388;2023-02-04T12:38:19;18.80;99.10
6865;DHT22;3471;49.678;8.388;2023-02-04T12:40:45;18.40;99.90
6865;DHT22;3471;49.678;8.388;2023-02-04T12:43:11;18.60;99.90
6865;DHT22;3471;49.678;8.388;2023-02-04T12:45:36;19.20;99.90
6865;DHT22;3471;49.678;8.388;2023-02-04T12:48:02;20.10;99.00
6865;DHT22;3471;49.678;8.388;2023-02-04T12:50:28;20.70;98.50
6865;DHT22;3471;49.678;8.388;2023-02-04T12:52:58;20.70;96.70
6865;DHT22;3471;49.678;8.388;2023-02-04T12:55:26;20.60;97.80
6865;DHT22;3471;49.678;8.388;2023-02-04T12:57:52;20.90;98.00
6865;DHT22;3471;49.678;8.388;2023-02-04T13:00:19;21.60;98.30
6865;DHT22;3471;49.678;8.388;2023-02-04T13:02:45;22.40;96.30
6865;DHT22;3471;49.678;8.388;2023-02-04T13:05:12;22.60;94.20
6865;DHT22;3471;49.678;8.388;2023-02-04T13:07:39;22.30;96.30
6865;DHT22;3471;49.678;8.388;2023-02-04T13:10:06;22.20;96.30
6865;DHT22;3471;49.678;8.388;2023-02-04T13:12:32;22.50;96.10
6865;DHT22;3471;49.678;8.388;2023-02-04T13:14:58;22.70;94.20
6865;DHT22;3471;49.678;8.388;2023-02-04T13:17:23;22.70;93.70
6865;DHT22;3471;49.678;8.388;2023-02-04T13:19:49;22.70;94.80
6865;DHT22;3471;49.678;8.388;2023-02-04T13:22:14;22.80;92.00
6865;DHT22;3471;49.678;8.388;2023-02-04T13:24:40;22.40;92.50
6865;DHT22;3471;49.678;8.388;2023-02-04T13:27:06;21.70;93.10
6865;DHT22;3471;49.678;8.388;2023-02-04T13:29:31;20.90;93.60
6865;DHT22;3471;49.678;8.388;2023-02-04T13:31:57;20.00;94.50
6865;DHT22;3471;49.678;8.388;2023-02-04T13:34:23;19.20;94.70
6865;DHT22;3471;49.678;8.388;2023-02-04T13:36:48;18.40;94.90
6865;DHT22;3471;49.678;8.388;2023-02-04T13:39:14;17.70;95.10
6865;DHT22;3471;49.678;8.388;2023-02-04T13:41:40;17.00;96.70
6865;DHT22;3471;49.678;8.388;2023-02-04T13:44:05;16.50;95.60
6865;DHT22;3471;49.678;8.388;2023-02-04T13:46:31;16.20;96.80
6865;DHT22;3471;49.678;8.388;2023-02-04T13:48:57;15.90;96.00
6865;DHT22;3471;49.678;8.388;2023-02-04T13:51:23;15.80;97.20
6865;DHT22;3471;49.678;8.388;2023-02-04T13:53:48;15.80;98.40
6865;DHT22;3471;49.678;8.388;2023-02-04T13:56:14;15.90;98.30
6865;DHT22;3471;49.678;8.388;2023-02-04T13:58:39;15.90;98.50
6865;DHT22;3471;49.678;8.388;2023-02-04T14:01:09;16.00;99.90
6865;DHT22;3471;49.678;8.388;2023-02-04T14:03:35;16.20;99.90
6865;DHT22;3471;49.678;8.388;2023-02-04T14:06:00;16.70;99.90
6865;DHT22;3471;49.678;8.388;2023-02-04T14:08:26;17.70;99.90
6865;DHT22;3471;49.678;8.388;2023-02-04T14:10:52;18.80;99.80
6865;DHT22;3471;49.678;8.388;2023-02-04T14:13:18;19.50;98.00
6865;DHT22;3471;49.678;8.388;2023-02-04T14:15:43;19.60;97.90
6865;DHT22;3471;49.678;8.388;2023-02-04T14:18:09;19.30;97.00
6865;DHT22;3471;49.678;8.388;2023-02-04T14:20:35;18.80;98.40
6865;DHT22;3471;49.678;8.388;2023-02-04T14:23:01;18.20;98.00
6865;DHT22;3471;49.678;8.388;2023-02-04T14:25:27;17.60;99.60
6865;DHT22;3471;49.678;8.388;2023-02-04T14:27:52;17.10;99.30
6865;DHT22;3471;49.678;8.388;2023-02-04T14:30:23;16.90;99.20
6865;DHT22;3471;49.678;8.388;2023-02-04T14:32:49;17.20;99.60
6865;DHT22;3471;49.678;8.388;2023-02-04T14:35:15;17.90;98.70
6865;DHT22;3471;49.678;8.388;2023-02-04T14:37:41;18.50;96.80
6865;DHT22;3471;49.678;8.388;2023-02-04T14:40:08;18.80;97.50
6865;DHT22;3471;49.678;8.388;2023-02-04T14:42:34;18.90;97.90
6865;DHT22;3471;49.678;8.388;2023-02-04T14:45:01;18.90;95.80
6865;DHT22;3471;49.678;8.388;2023-02-04T14:47:31;19.00;98.00
6865;DHT22;3471;49.678;8.388;2023-02-04T14:49:57;19.30;97.40
6865;DHT22;3471;49.678;8.388;2023-02-04T14:52:22;19.70;98.00
6865;DHT22;3471;49.678;8.388;2023-02-04T14:54:50;20.00;95.90
6865;DHT22;3471;49.678;8.388;2023-02-04T14:57:15;20.40;97.00
6865;DHT22;3471;49.678;8.388;2023-02-04T14:59:41;20.50;92.80
6865;DHT22;3471;49.678;8.388;2023-02-04T15:02:09;20.70;93.50
6865;DHT22;3471;49.678;8.388;2023-02-04T15:04:35;20.80;92.80
6865;DHT22;3471;49.678;8.388;2023-02-04T15:07:01;20.80;93.60
6865;DHT22;3471;49.678;8.388;2023-02-04T15:09:28;20.70;93.90
6865;DHT22;3471;49.678;8.388;2023-02-04T15:11:54;20.60;94.20
6865;DHT22;3471;49.678;8.388;2023-02-04T15:14:20;20.30;93.10
6865;DHT22;3471;49.678;8.388;2023-02-04T15:16:45;19.80;94.70
6865;DHT22;3471;49.678;8.388;2023-02-04T15:19:13;19.20;95.00
6865;DHT22;3471;49.678;8.388;2023-02-04T15:21:39;18.70;95.90
6865;DHT22;3471;49.678;8.388;2023-02-04T15:24:04;18.10;96.10
6865;DHT22;3471;49.678;8.388;2023-02-04T15:26:30;17.50;95.30
6865;DHT22;3471;49.678;8.388;2023-02-04T15:28:56;16.90;97.50
6865;DHT22;3471;49.678;8.388;2023-02-04T15:31:22;16.30;97.80
6865;DHT22;3471;49.678;8.388;2023-02-04T15:33:48;15.80;98.80
6865;DHT22;3471;49.678;8.388;2023-02-04T15:36:14;15.50;98.90
6865;DHT22;3471;49.678;8.388;2023-02-04T15:38:39;15.30;99.60
6865;DHT22;3471;49.678;8.388;2023-02-04T15:41:05;15.10;99.60
6865;DHT22;3471;49.678;8.388;2023-02-04T15:43:30;14.90;99.40
6865;DHT22;3471;49.678;8.388;2023-02-04T15:45:56;14.70;99.90
6865;DHT22;3471;49.678;8.388;2023-02-04T15:48:22;14.40;99.90
6865;DHT22;3471;49.678;8.388;2023-02-04T15:50:49;14.10;99.90
6865;DHT22;3471;49.678;8.388;2023-02-04T15:53:16;13.70;99.90
6865;DHT22;3471;49.678;8.388;2023-02-04T15:55:42;13.30;99.90
6865;DHT22;3471;49.678;8.388;2023-02-04T15:58:07;13.10;99.90
6865;DHT22;3471;49.678;8.388;2023-02-04T16:00:33;12.80;99.90
6865;DHT22;3471;49.678;8.388;2023-02-04T16:02:59;12.60;99.90
6865;DHT22;3471;49.678;8.388;2023-02-04T16:05:24;12.40;99.90
6865;DHT22;3471;49.678;8.388;2023-02-04T16:07:50;12.20;99.90
6865;DHT22;3471;49.678;8.388;2023-02-04T16:10:16;12.00;99.90
6865;DHT22;3471;49.678;8.388;2023-02-04T16:12:42;11.80;99.90
6865;DHT22;3471;49.678;8.388;2023-02-04T16:15:08;11.60;99.90
6865;DHT22;3471;49.678;8.388;2023-02-04T16:17:34;11.50;99.90
6865;DHT22;3471;49.678;8.388;2023-02-04T16:20:00;11.40;99.90
6865;DHT22;3471;49.678;8.388;2023-02-04T16:22:28;11.10;99.90
6865;DHT22;3471;49.678;8.388;2023-02-04T16:24:53;11.00;99.90
6865;DHT22;3471;49.678;8.388;2023-02-04T16:27:19;10.80;99.90